Overview Statistics Trail Chart Weather Telemetry Raw packets
 

This is the latest recevied weather packets stored in our database for station/object DL4MGC-10. If no packets are shown the sender has not sent any weather packets the latest 10 day(s).

<< 1 2 3 4 5 >>
Time Temp. Humidity Pressure Rain* Wind** Luminosity Snow
1788679671 18.89° C 75% 1027.4 hPa - - - -
1788678771 18.89° C 74% 1027.3 hPa - - - -
1788677870 17.78° C 76% 1027.4 hPa - - - -
1788676970 16.67° C 80% 1027.4 hPa - - - -
1788676070 16.67° C 79% 1027.3 hPa - - - -
1788675170 14.44° C 85% 1027.3 hPa - - - -
1788674270 11.67° C 97% 1027.1 hPa - - - -
1788673370 12.22° C 95% 1027 hPa - - - -
1788672470 13.33° C 86% 1026.8 hPa - - - -
1788671570 13.33° C 86% 1027 hPa - - - -
1788670670 13.33° C 85% 1026.8 hPa - - - -
1788669770 12.78° C 87% 1026.8 hPa - - - -
1788668869 13.33° C 86% 1026.7 hPa - - - -
1788667969 13.33° C 87% 1026.7 hPa - - - -
1788667069 12.22° C 95% 1026.7 hPa - - - -
1788666169 13.33° C 89% 1026.7 hPa - - - -
1788665269 12.22° C 95% 1026.7 hPa - - - -
1788664369 12.22° C 95% 1026.5 hPa - - - -
1788663469 13.33° C 89% 1026.4 hPa - - - -
1788662569 13.89° C 85% 1026.3 hPa - - - -
1788661669 13.89° C 88% 1026.4 hPa - - - -
1788660769 14.44° C 87% 1026.3 hPa - - - -
1788659868 12.22° C 100% 1026.3 hPa - - - -
1788658968 13.33° C 94% 1026.2 hPa - - - -
1788658068 15° C 87% 1026.2 hPa - - - -

* Rain since midnight (hover to see other rain measurements)
** Current wind speed in m/s (hover to see current wind gust speed)